createdAt,value
2018-09-01T00:01:52.874Z,98.20
2018-09-01T00:04:23.636Z,98.50
2018-09-01T00:06:53.246Z,98.80
2018-09-01T00:09:22.950Z,98.60
2018-09-01T00:11:53.107Z,98.50
2018-09-01T00:14:31.507Z,98.60
2018-09-01T00:17:01.404Z,98.60
2018-09-01T00:19:30.945Z,98.60
2018-09-01T00:22:00.502Z,99.00
2018-09-01T00:27:03.895Z,98.80
2018-09-01T00:29:33.394Z,98.80
2018-09-01T00:32:02.989Z,98.80
2018-09-01T00:34:32.683Z,98.80
2018-09-01T00:37:02.308Z,98.80
2018-09-01T00:39:31.839Z,98.80
2018-09-01T00:42:01.309Z,99.00
2018-09-01T00:44:30.985Z,98.90
2018-09-01T00:47:00.664Z,98.90
2018-09-01T00:49:30.438Z,99.00
2018-09-01T00:52:00.081Z,98.90
2018-09-01T00:54:29.430Z,98.90
2018-09-01T00:56:58.986Z,98.90
2018-09-01T00:59:28.528Z,98.90
2018-09-01T01:01:58.288Z,99.00
2018-09-01T01:04:28.281Z,99.00
2018-09-01T01:07:02.609Z,99.00
2018-09-01T01:09:32.276Z,99.30
2018-09-01T01:12:02.048Z,99.10
2018-09-01T01:14:31.654Z,99.00
2018-09-01T01:19:39.259Z,99.00
2018-09-01T01:22:08.793Z,99.10
2018-09-01T01:24:38.431Z,99.10
2018-09-01T01:27:08.217Z,99.20
2018-09-01T01:29:37.881Z,99.30
2018-09-01T01:32:07.595Z,99.30
2018-09-01T01:34:37.245Z,99.30
2018-09-01T01:37:06.801Z,99.20
2018-09-01T01:39:36.385Z,99.20
2018-09-01T01:42:06.072Z,99.20
2018-09-01T01:44:35.620Z,99.20
2018-09-01T01:47:05.132Z,99.20
2018-09-01T01:49:43.476Z,99.20
2018-09-01T01:52:12.951Z,99.20
2018-09-01T01:54:42.410Z,99.20
2018-09-01T01:57:12.075Z,99.20
2018-09-01T01:59:50.380Z,99.30
2018-09-01T02:02:19.846Z,99.30
2018-09-01T02:04:50.206Z,99.30
2018-09-01T02:07:19.628Z,99.30
2018-09-01T02:09:49.276Z,99.30
2018-09-01T02:12:19.030Z,99.30
2018-09-01T02:14:48.558Z,99.30
2018-09-01T02:17:18.037Z,99.30
2018-09-01T02:19:47.527Z,99.20
2018-09-01T02:22:17.251Z,99.30
2018-09-01T02:24:46.800Z,99.30
2018-09-01T02:27:16.355Z,99.40
2018-09-01T02:29:46.064Z,99.40
2018-09-01T02:32:30.162Z,99.50
2018-09-01T02:34:59.953Z,99.50
2018-09-01T02:37:29.494Z,99.50
2018-09-01T02:39:59.085Z,99.90
2018-09-01T02:42:28.560Z,99.80
2018-09-01T02:44:58.325Z,99.80
2018-09-01T02:47:27.835Z,99.80
2018-09-01T02:49:57.502Z,99.70
2018-09-01T02:52:27.114Z,99.80
2018-09-01T02:54:56.654Z,99.80
2018-09-01T02:57:26.221Z,99.70
2018-09-01T02:59:56.646Z,99.70
2018-09-01T03:02:31.435Z,99.80
2018-09-01T03:05:02.838Z,99.70
2018-09-01T03:07:32.387Z,99.70
2018-09-01T03:10:02.032Z,99.70
2018-09-01T03:12:32.198Z,99.80
2018-09-01T03:15:10.136Z,99.70
2018-09-01T03:17:40.416Z,99.70
2018-09-01T03:20:10.062Z,99.80
2018-09-01T03:22:39.663Z,99.70
2018-09-01T03:25:09.295Z,99.80
2018-09-01T03:27:38.897Z,99.80
2018-09-01T03:30:08.466Z,99.80
2018-09-01T03:32:38.074Z,99.80
2018-09-01T03:35:07.601Z,99.80
2018-09-01T03:37:37.086Z,99.80
2018-09-01T03:40:08.151Z,99.80
2018-09-01T03:42:37.642Z,99.90
2018-09-01T03:45:07.500Z,99.90
2018-09-01T03:47:36.999Z,99.90
2018-09-01T03:50:06.795Z,99.80
2018-09-01T03:52:36.236Z,99.90
2018-09-01T03:55:06.484Z,99.90
2018-09-01T03:57:42.288Z,99.90
2018-09-01T04:00:15.929Z,99.90
2018-09-01T04:02:45.400Z,99.90
2018-09-01T04:05:15.824Z,99.90
2018-09-01T04:07:53.916Z,99.90
2018-09-01T04:10:25.114Z,99.90
2018-09-01T04:12:54.963Z,99.90
2018-09-01T04:15:24.581Z,99.90
2018-09-01T04:18:02.705Z,99.90
2018-09-01T04:20:32.472Z,99.90
2018-09-01T04:23:02.106Z,99.90
2018-09-01T04:25:31.537Z,99.90
2018-09-01T04:30:38.705Z,99.90
2018-09-01T04:33:08.253Z,99.90
2018-09-01T04:35:37.756Z,99.90
2018-09-01T04:38:07.396Z,99.90
2018-09-01T04:40:36.925Z,99.90
2018-09-01T04:43:06.719Z,99.90
2018-09-01T04:45:36.264Z,99.90
2018-09-01T04:48:05.775Z,99.90
2018-09-01T04:50:35.542Z,99.90
2018-09-01T04:53:04.933Z,99.90
2018-09-01T04:55:34.570Z,99.90
2018-09-01T04:58:08.698Z,99.90
2018-09-01T05:00:46.672Z,99.90
2018-09-01T05:03:16.145Z,99.90
2018-09-01T05:05:46.879Z,99.90
2018-09-01T05:08:16.427Z,99.90
2018-09-01T05:10:51.212Z,99.90
2018-09-01T05:13:21.888Z,99.90
2018-09-01T05:15:51.347Z,99.90
2018-09-01T05:18:21.018Z,99.90
2018-09-01T05:23:28.037Z,99.90
2018-09-01T05:25:57.602Z,99.90
2018-09-01T05:28:27.233Z,99.90
2018-09-01T05:30:56.768Z,99.90
2018-09-01T05:33:26.455Z,99.90
2018-09-01T05:35:56.161Z,99.90
2018-09-01T05:38:26.535Z,99.90
2018-09-01T05:40:56.153Z,99.90
2018-09-01T05:43:32.564Z,99.90
2018-09-01T05:46:02.174Z,99.90
2018-09-01T05:48:31.669Z,99.90
2018-09-01T05:51:01.121Z,99.90
2018-09-01T05:56:08.473Z,99.90
2018-09-01T05:58:38.147Z,99.90
2018-09-01T06:01:07.855Z,99.90
2018-09-01T06:03:37.782Z,99.90
2018-09-01T06:06:08.039Z,99.90
2018-09-01T06:08:37.816Z,99.90
2018-09-01T06:11:07.387Z,99.90
2018-09-01T06:13:37.922Z,99.90
2018-09-01T06:16:07.429Z,99.90
2018-09-01T06:18:37.046Z,99.90
2018-09-01T06:21:06.689Z,99.90
2018-09-01T06:23:36.446Z,99.90
2018-09-01T06:26:06.071Z,99.90
2018-09-01T06:28:40.417Z,99.90
2018-09-01T06:31:10.463Z,99.90
2018-09-01T06:33:40.629Z,99.90
2018-09-01T06:36:10.298Z,99.90
2018-09-01T06:38:40.653Z,99.90
2018-09-01T06:41:10.250Z,99.90
2018-09-01T06:43:40.841Z,99.90
2018-09-01T06:46:14.624Z,99.90
2018-09-01T06:48:44.328Z,99.90
2018-09-01T06:51:13.786Z,99.90
2018-09-01T06:53:43.499Z,99.90
2018-09-01T06:56:22.118Z,99.90
2018-09-01T06:58:51.832Z,99.90
2018-09-01T07:01:21.431Z,99.90
2018-09-01T07:03:50.893Z,99.90
2018-09-01T07:06:30.594Z,99.90
2018-09-01T07:09:00.403Z,99.90
2018-09-01T07:11:29.928Z,99.90
2018-09-01T07:14:00.070Z,99.90
2018-09-01T07:19:03.392Z,99.90
2018-09-01T07:21:33.107Z,99.90
2018-09-01T07:24:02.960Z,99.90
2018-09-01T07:26:32.618Z,99.90
2018-09-01T07:29:02.414Z,99.90
2018-09-01T07:31:32.301Z,99.90
2018-09-01T07:34:01.709Z,99.90
2018-09-01T07:36:31.336Z,99.90
2018-09-01T07:39:00.812Z,99.90
2018-09-01T07:41:30.359Z,99.90
2018-09-01T07:43:59.828Z,99.90
2018-09-01T07:46:29.920Z,99.90
2018-09-01T07:48:59.521Z,99.70
2018-09-01T07:51:29.320Z,99.90
2018-09-01T07:53:59.102Z,99.90
2018-09-01T07:56:28.774Z,99.70
2018-09-01T07:58:58.498Z,99.30
2018-09-01T08:01:28.139Z,99.60
2018-09-01T08:03:58.245Z,99.10
2018-09-01T08:06:27.398Z,99.20
2018-09-01T08:08:56.406Z,98.80
2018-09-01T08:11:25.260Z,98.80
2018-09-01T08:13:54.341Z,98.40
2018-09-01T08:16:24.070Z,97.90
2018-09-01T08:18:53.421Z,98.00
2018-09-01T08:21:22.485Z,98.00
2018-09-01T08:23:52.125Z,97.80
2018-09-01T08:26:21.769Z,97.50
2018-09-01T08:28:50.841Z,97.00
2018-09-01T08:31:20.026Z,96.50
2018-09-01T08:33:49.972Z,96.70
2018-09-01T08:36:19.180Z,96.20
2018-09-01T08:38:48.133Z,96.40
2018-09-01T08:41:18.617Z,96.80
2018-09-01T08:43:49.534Z,96.40
2018-09-01T08:46:18.507Z,96.60
2018-09-01T08:48:48.128Z,96.10
2018-09-01T08:51:17.165Z,95.40
2018-09-01T08:53:46.543Z,95.30
2018-09-01T08:56:15.688Z,95.00
2018-09-01T08:58:45.063Z,94.40
2018-09-01T09:01:14.128Z,94.00
2018-09-01T09:03:47.724Z,93.60
2018-09-01T09:06:17.929Z,93.90
2018-09-01T09:08:48.738Z,93.60
2018-09-01T09:11:17.785Z,93.20
2018-09-01T09:13:47.001Z,93.50
2018-09-01T09:16:16.132Z,93.60
2018-09-01T09:18:45.165Z,92.50
2018-09-01T09:21:13.978Z,92.60
2018-09-01T09:23:42.862Z,93.00
2018-09-01T09:26:11.745Z,91.70
2018-09-01T09:28:40.575Z,91.40
2018-09-01T09:31:09.415Z,90.80
2018-09-01T09:33:38.587Z,90.30
2018-09-01T09:36:07.859Z,90.40
2018-09-01T09:38:37.906Z,90.30
2018-09-01T09:41:07.656Z,90.00
2018-09-01T09:43:36.717Z,87.80
2018-09-01T09:48:56.379Z,88.40
2018-09-01T09:51:25.451Z,85.80
2018-09-01T09:53:54.353Z,87.10
2018-09-01T09:56:23.794Z,90.30
2018-09-01T09:58:52.975Z,83.00
2018-09-01T10:01:26.829Z,80.90
2018-09-01T10:03:55.722Z,80.90
2018-09-01T10:06:25.429Z,81.80
2018-09-01T10:08:54.612Z,81.00
2018-09-01T10:11:23.472Z,82.50
2018-09-01T10:13:59.536Z,83.10
2018-09-01T10:16:31.734Z,83.60
2018-09-01T10:19:01.168Z,82.90
2018-09-01T10:21:30.175Z,84.30
2018-09-01T10:23:59.109Z,82.90
2018-09-01T10:26:44.783Z,81.80
2018-09-01T10:29:13.896Z,80.90
2018-09-01T10:31:43.631Z,78.00
2018-09-01T10:34:13.504Z,79.50
2018-09-01T10:36:43.037Z,77.60
2018-09-01T10:39:12.061Z,78.00
2018-09-01T10:41:40.969Z,77.50
2018-09-01T10:44:11.703Z,75.80
2018-09-01T10:46:40.750Z,75.80
2018-09-01T10:49:09.880Z,69.80
2018-09-01T10:51:38.925Z,70.60
2018-09-01T10:54:08.505Z,75.70
2018-09-01T10:56:37.661Z,72.10
2018-09-01T10:59:07.038Z,67.30
2018-09-01T11:01:36.109Z,66.30
2018-09-01T11:04:05.422Z,67.70
2018-09-01T11:06:36.042Z,68.00
2018-09-01T11:09:07.049Z,66.40
2018-09-01T11:11:36.205Z,67.70
2018-09-01T11:14:07.687Z,69.90
2018-09-01T11:16:36.873Z,68.80
2018-09-01T11:19:08.010Z,69.20
2018-09-01T11:21:37.292Z,69.30
2018-09-01T11:24:06.568Z,72.50
2018-09-01T11:26:36.608Z,70.10
2018-09-01T11:29:06.132Z,67.50
2018-09-01T11:31:35.563Z,65.00
2018-09-01T11:36:58.247Z,63.40
2018-09-01T11:39:28.175Z,61.00
2018-09-01T11:41:57.465Z,63.00
2018-09-01T11:44:27.096Z,62.40
2018-09-01T11:46:56.664Z,61.30
2018-09-01T11:49:25.675Z,60.90
2018-09-01T11:51:54.878Z,61.50
2018-09-01T11:54:24.150Z,62.40
2018-09-01T11:56:53.145Z,62.90
2018-09-01T11:59:22.732Z,63.70
2018-09-01T12:01:52.738Z,65.10
2018-09-01T12:04:21.926Z,63.00
2018-09-01T12:06:52.141Z,63.10
2018-09-01T12:09:22.179Z,62.10
2018-09-01T12:11:51.251Z,62.10
2018-09-01T12:14:20.377Z,59.50
2018-09-01T12:16:49.498Z,57.20
2018-09-01T12:19:18.649Z,57.90
2018-09-01T12:21:48.035Z,58.30
2018-09-01T12:24:16.846Z,57.90
2018-09-01T12:26:45.803Z,60.20
2018-09-01T12:29:14.638Z,60.70
2018-09-01T12:31:43.604Z,61.20
2018-09-01T12:34:12.324Z,61.40
2018-09-01T12:36:41.404Z,60.60
2018-09-01T12:39:10.597Z,61.90
2018-09-01T12:41:39.932Z,63.10
2018-09-01T12:44:09.788Z,58.40
2018-09-01T12:46:39.056Z,61.70
2018-09-01T12:49:07.912Z,62.50
2018-09-01T12:51:36.889Z,66.90
2018-09-01T12:54:06.764Z,59.50
2018-09-01T12:56:37.256Z,60.00
2018-09-01T12:59:06.685Z,61.70
2018-09-01T13:01:35.994Z,60.80
2018-09-01T13:04:05.038Z,59.10
2018-09-01T13:06:34.200Z,60.20
2018-09-01T13:09:05.341Z,59.20
